createdAt,value
2019-03-01T00:04:18.490Z,25.77
2019-03-01T00:07:09.476Z,19.17
2019-03-01T00:09:55.570Z,21.67
2019-03-01T00:12:39.011Z,23.97
2019-03-01T00:19:11.672Z,20.50
2019-03-01T00:21:54.789Z,21.47
2019-03-01T00:30:42.151Z,21.83
2019-03-01T00:33:26.191Z,20.27
2019-03-01T00:36:13.766Z,19.83
2019-03-01T00:38:59.714Z,20.87
2019-03-01T00:42:09.457Z,22.53
2019-03-01T00:44:53.743Z,18.50
2019-03-01T00:47:39.502Z,18.67
2019-03-01T00:50:22.853Z,23.73
2019-03-01T00:53:06.773Z,20.53
2019-03-01T00:55:55.090Z,21.70
2019-03-01T00:58:42.941Z,17.67
2019-03-01T01:01:28.043Z,21.87
2019-03-01T01:04:19.347Z,20.57
2019-03-01T01:07:07.793Z,19.67
2019-03-01T01:09:54.142Z,19.83
2019-03-01T01:12:43.336Z,21.13
2019-03-01T01:15:27.918Z,24.73
2019-03-01T01:18:12.275Z,20.00
2019-03-01T01:21:00.589Z,22.43
2019-03-01T01:23:45.183Z,27.50
2019-03-01T01:26:32.992Z,26.80
2019-03-01T01:29:17.445Z,25.47
2019-03-01T01:32:02.942Z,30.27
2019-03-01T01:37:36.235Z,30.10
2019-03-01T01:40:21.149Z,27.23
2019-03-01T01:43:05.867Z,22.17
2019-03-01T01:45:55.944Z,29.17
2019-03-01T01:48:45.035Z,23.07
2019-03-01T01:51:31.277Z,26.23
2019-03-01T01:54:20.085Z,25.33
2019-03-01T01:57:06.562Z,28.43
2019-03-01T01:59:50.892Z,22.77
2019-03-01T02:02:35.934Z,25.60
2019-03-01T02:05:20.561Z,28.10
2019-03-01T02:08:05.119Z,24.90
2019-03-01T02:10:49.838Z,25.37
2019-03-01T02:16:41.707Z,26.90
2019-03-01T02:19:31.259Z,25.10
2019-03-01T02:22:16.621Z,26.63
2019-03-01T02:25:05.173Z,27.77
2019-03-01T02:30:41.551Z,30.87
2019-03-01T02:33:27.111Z,22.60
2019-03-01T02:36:12.357Z,27.83
2019-03-01T02:38:56.759Z,27.90
2019-03-01T02:41:44.715Z,24.87
2019-03-01T02:44:29.519Z,21.87
2019-03-01T02:47:13.325Z,22.00
2019-03-01T02:49:56.782Z,27.17
2019-03-01T02:52:42.283Z,25.20
2019-03-01T02:58:18.551Z,23.47
2019-03-01T03:01:08.413Z,21.23
2019-03-01T03:03:53.538Z,22.63
2019-03-01T03:06:42.595Z,23.27
2019-03-01T03:09:30.887Z,21.67
2019-03-01T03:12:16.118Z,23.53
2019-03-01T03:18:02.519Z,25.17
2019-03-01T03:20:46.602Z,25.30
2019-03-01T03:23:36.055Z,27.50
2019-03-01T03:26:19.458Z,22.20
2019-03-01T03:29:03.763Z,19.17
2019-03-01T03:31:48.826Z,23.83
2019-03-01T03:34:32.475Z,23.00
2019-03-01T03:37:21.208Z,26.50
2019-03-01T03:40:05.060Z,20.07
2019-03-01T03:42:49.549Z,22.93
2019-03-01T03:45:38.613Z,22.17
2019-03-01T03:48:25.606Z,22.27
2019-03-01T03:51:10.472Z,21.67
2019-03-01T03:53:55.909Z,24.90
2019-03-01T03:56:44.693Z,20.40
2019-03-01T03:59:31.765Z,21.33
2019-03-01T04:05:17.448Z,26.27
2019-03-01T04:08:02.088Z,21.73
2019-03-01T04:10:46.116Z,19.13
2019-03-01T04:16:24.042Z,17.33
2019-03-01T04:19:09.863Z,18.47
2019-03-01T04:21:52.680Z,18.40
2019-03-01T04:24:23.558Z,18.40
2019-03-01T04:27:07.003Z,18.07
2019-03-01T04:29:51.870Z,22.90
2019-03-01T04:32:40.473Z,19.97
2019-03-01T04:35:24.635Z,21.53
2019-03-01T04:38:09.826Z,21.10
2019-03-01T04:40:42.471Z,23.17
2019-03-01T04:43:29.510Z,23.67
2019-03-01T04:46:16.658Z,22.97
2019-03-01T04:51:59.373Z,24.07
2019-03-01T04:54:42.707Z,20.67
2019-03-01T04:57:31.660Z,24.70
2019-03-01T05:00:17.254Z,28.10
2019-03-01T05:03:04.980Z,30.23
2019-03-01T05:05:49.410Z,25.67
2019-03-01T05:08:34.656Z,30.77
2019-03-01T05:11:21.464Z,28.37
2019-03-01T05:14:30.541Z,25.83
2019-03-01T05:17:19.390Z,40.97
2019-03-01T05:20:03.281Z,30.87
2019-03-01T05:22:52.391Z,29.03
2019-03-01T05:25:40.791Z,32.20
2019-03-01T05:28:28.740Z,29.13
2019-03-01T05:31:14.333Z,32.90
2019-03-01T05:34:01.196Z,32.17
2019-03-01T05:36:46.563Z,33.87
2019-03-01T05:39:32.367Z,36.63
2019-03-01T05:42:17.682Z,33.63
2019-03-01T05:45:04.410Z,31.37
2019-03-01T05:47:48.908Z,37.53
2019-03-01T05:50:37.868Z,44.60
2019-03-01T05:59:34.233Z,47.90
2019-03-01T06:02:22.402Z,45.20
2019-03-01T06:05:07.068Z,44.93
2019-03-01T06:07:56.865Z,43.13
2019-03-01T06:10:43.447Z,42.23
2019-03-01T06:13:27.932Z,39.07
2019-03-01T06:16:12.855Z,41.67
2019-03-01T06:18:57.656Z,40.63
2019-03-01T06:21:41.590Z,42.87
2019-03-01T06:24:29.770Z,44.90
2019-03-01T06:27:13.556Z,45.53
2019-03-01T06:30:03.206Z,46.30
2019-03-01T06:33:14.501Z,42.17
2019-03-01T06:35:59.202Z,48.77
2019-03-01T06:39:06.901Z,56.07
2019-03-01T06:41:58.129Z,56.30
2019-03-01T06:47:38.802Z,60.60
2019-03-01T06:50:44.309Z,66.70
2019-03-01T06:53:31.361Z,75.60
2019-03-01T06:56:07.170Z,83.23
2019-03-01T06:58:50.812Z,79.50
2019-03-01T07:04:45.388Z,84.00
2019-03-01T07:07:34.430Z,95.17
2019-03-01T07:10:41.835Z,120.93
2019-03-01T07:13:54.418Z,134.77
2019-03-01T07:16:37.814Z,152.27
2019-03-01T07:19:24.143Z,143.20
2019-03-01T07:22:07.446Z,147.57
2019-03-01T07:24:57.522Z,158.23
2019-03-01T07:27:40.190Z,150.07
2019-03-01T07:30:27.027Z,150.27
2019-03-01T07:33:14.547Z,164.30
2019-03-01T07:35:56.939Z,147.97
2019-03-01T07:38:42.193Z,142.77
2019-03-01T07:41:26.039Z,144.60
2019-03-01T07:44:12.805Z,151.23
2019-03-01T07:50:04.371Z,156.30
2019-03-01T07:59:00.226Z,156.63
2019-03-01T08:08:03.577Z,169.70
2019-03-01T08:13:44.073Z,174.27
2019-03-01T08:16:28.795Z,168.97
2019-03-01T08:19:17.074Z,169.37
2019-03-01T08:22:05.667Z,161.17
2019-03-01T08:25:13.741Z,195.53
2019-03-01T08:38:35.902Z,209.60
2019-03-01T08:41:02.019Z,207.33
2019-03-01T08:43:53.464Z,190.90
2019-03-01T08:46:50.415Z,183.27
2019-03-01T08:49:39.793Z,166.60
2019-03-01T08:52:12.385Z,164.63
2019-03-01T08:55:00.114Z,154.27
2019-03-01T08:57:44.472Z,152.40
2019-03-01T09:00:41.967Z,148.07
2019-03-01T09:10:50.633Z,141.63
2019-03-01T09:13:24.358Z,130.27
2019-03-01T09:16:03.491Z,126.93
2019-03-01T09:18:36.660Z,134.93
2019-03-01T09:21:12.971Z,142.17
2019-03-01T09:23:55.033Z,144.40
2019-03-01T09:26:31.616Z,145.10
2019-03-01T09:29:41.180Z,148.03
2019-03-01T09:32:10.734Z,165.77
2019-03-01T09:34:47.277Z,149.13
2019-03-01T09:40:29.705Z,162.63
2019-03-01T09:43:04.337Z,150.40
2019-03-01T09:45:38.200Z,145.40
2019-03-01T09:48:11.927Z,144.00
2019-03-01T09:50:42.082Z,139.97
2019-03-01T09:53:14.994Z,152.30
2019-03-01T09:56:01.125Z,167.30
2019-03-01T09:58:33.481Z,164.73
2019-03-01T10:01:09.016Z,161.17
2019-03-01T10:03:40.791Z,150.27
2019-03-01T10:06:11.469Z,153.50
2019-03-01T10:08:42.179Z,172.50
2019-03-01T10:11:14.078Z,175.03
2019-03-01T10:13:44.897Z,153.43
2019-03-01T10:16:15.764Z,153.20
2019-03-01T10:18:46.731Z,167.80
2019-03-01T10:21:19.087Z,170.60
2019-03-01T10:23:49.954Z,167.67
2019-03-01T10:26:20.722Z,165.53
2019-03-01T10:28:51.528Z,177.27
2019-03-01T10:31:25.182Z,185.27
2019-03-01T10:33:58.337Z,174.50
2019-03-01T10:36:29.185Z,161.87
2019-03-01T10:39:00.078Z,186.70
2019-03-01T10:41:30.815Z,182.27
2019-03-01T10:44:01.505Z,192.63
2019-03-01T10:46:32.219Z,172.27
2019-03-01T10:49:03.039Z,158.50
2019-03-01T10:51:33.958Z,152.33
2019-03-01T10:57:07.779Z,159.00
2019-03-01T10:59:38.508Z,160.93
2019-03-01T11:02:11.101Z,177.93
2019-03-01T11:04:43.110Z,150.63
2019-03-01T11:07:13.870Z,158.30
2019-03-01T11:09:45.127Z,143.67
2019-03-01T11:12:17.191Z,127.77
2019-03-01T11:14:47.821Z,118.87
2019-03-01T11:17:18.452Z,114.23
2019-03-01T11:19:49.533Z,116.53
2019-03-01T11:22:20.118Z,119.90
2019-03-01T11:24:50.817Z,113.13
2019-03-01T11:27:21.562Z,112.37
2019-03-01T11:29:55.856Z,118.93
2019-03-01T11:32:26.682Z,119.47
2019-03-01T11:34:59.251Z,114.07
2019-03-01T11:37:31.332Z,119.93
2019-03-01T11:40:02.108Z,119.37
2019-03-01T11:42:33.399Z,133.00
2019-03-01T11:45:04.932Z,130.43
2019-03-01T11:47:38.230Z,128.70
2019-03-01T11:50:12.645Z,137.13
2019-03-01T11:52:44.657Z,126.87
2019-03-01T11:55:24.862Z,132.10
2019-03-01T11:57:58.420Z,141.27
2019-03-01T12:00:32.319Z,123.63
2019-03-01T12:03:03.785Z,78.17
2019-03-01T12:05:34.944Z,70.33
2019-03-01T12:08:06.558Z,76.10
2019-03-01T12:10:38.995Z,53.83
2019-03-01T12:13:11.213Z,51.97
2019-03-01T12:15:42.083Z,65.77
2019-03-01T12:18:14.047Z,86.33
2019-03-01T12:20:49.468Z,99.90
2019-03-01T12:23:21.790Z,100.77
2019-03-01T12:25:52.618Z,90.53
2019-03-01T12:28:23.406Z,144.80
2019-03-01T12:30:55.532Z,164.43
2019-03-01T12:33:29.575Z,96.43
2019-03-01T12:36:00.265Z,86.93
2019-03-01T12:38:31.071Z,73.07
2019-03-01T12:41:02.070Z,90.07
2019-03-01T12:43:33.632Z,79.73
2019-03-01T12:46:04.594Z,80.73
2019-03-01T12:48:38.040Z,84.23
2019-03-01T12:51:10.141Z,58.40
2019-03-01T12:53:41.505Z,55.93
2019-03-01T12:56:12.543Z,82.17
2019-03-01T12:58:43.373Z,71.83
2019-03-01T13:01:14.794Z,66.03
2019-03-01T13:03:50.975Z,68.30
2019-03-01T13:06:24.730Z,56.13
2019-03-01T13:08:55.705Z,68.97
2019-03-01T13:11:26.699Z,65.77
2019-03-01T13:13:57.445Z,76.30
2019-03-01T13:16:28.151Z,75.80
2019-03-01T13:18:59.448Z,85.87
2019-03-01T13:21:30.465Z,74.70
2019-03-01T13:24:01.403Z,85.97
2019-03-01T13:26:32.398Z,63.07
2019-03-01T13:29:05.342Z,59.50
2019-03-01T13:31:36.358Z,53.77
2019-03-01T13:34:07.025Z,47.33
2019-03-01T13:36:43.141Z,50.20
2019-03-01T13:39:15.550Z,45.43
2019-03-01T13:41:48.143Z,39.97
2019-03-01T13:44:20.002Z,38.40
2019-03-01T13:46:54.576Z,44.10
2019-03-01T13:49:26.774Z,37.97
2019-03-01T13:51:57.850Z,44.27
2019-03-01T13:54:29.645Z,40.37
2019-03-01T13:57:00.669Z,47.87
2019-03-01T13:59:31.642Z,60.40
2019-03-01T14:02:07.332Z,35.40
2019-03-01T14:04:36.554Z,39.93
2019-03-01T14:07:08.042Z,35.37
2019-03-01T14:09:40.895Z,35.20
2019-03-01T14:12:11.661Z,39.13
2019-03-01T14:14:42.541Z,40.67
2019-03-01T14:17:13.583Z,41.13
2019-03-01T14:19:53.114Z,42.67
2019-03-01T14:22:24.044Z,45.03
2019-03-01T14:25:02.432Z,41.33
2019-03-01T14:27:35.673Z,46.30
2019-03-01T14:30:20.741Z,41.63
2019-03-01T14:32:57.786Z,38.83
2019-03-01T14:35:28.147Z,38.90
2019-03-01T14:38:02.085Z,41.17
2019-03-01T14:40:34.270Z,39.43
2019-03-01T14:43:05.500Z,33.20
2019-03-01T14:45:36.307Z,29.10
2019-03-01T14:48:08.690Z,25.33
2019-03-01T14:50:41.962Z,26.73
2019-03-01T14:53:12.873Z,28.87
2019-03-01T14:55:47.281Z,29.50
2019-03-01T14:58:32.277Z,26.93
2019-03-01T15:01:18.285Z,29.13
2019-03-01T15:03:53.201Z,34.57
2019-03-01T15:06:23.161Z,29.43
2019-03-01T15:08:54.826Z,30.33
2019-03-01T15:11:25.774Z,26.83
2019-03-01T15:13:57.975Z,29.80
2019-03-01T15:16:28.844Z,32.67
2019-03-01T15:19:04.601Z,29.50
2019-03-01T15:21:37.107Z,28.43
2019-03-01T15:24:06.934Z,26.97
2019-03-01T15:26:38.107Z,27.93
2019-03-01T15:29:11.885Z,30.77
2019-03-01T15:31:42.859Z,23.70
2019-03-01T15:34:13.761Z,30.47
2019-03-01T15:36:44.802Z,33.13
2019-03-01T15:39:16.775Z,28.07
2019-03-01T15:41:48.753Z,30.07
2019-03-01T15:44:19.802Z,28.30
2019-03-01T15:46:51.072Z,26.50
2019-03-01T15:49:23.695Z,27.33
2019-03-01T15:51:54.792Z,30.57
2019-03-01T15:54:25.805Z,27.07
2019-03-01T15:57:00.305Z,30.63
2019-03-01T15:59:35.193Z,29.60
2019-03-01T16:02:07.784Z,30.00
2019-03-01T16:04:38.858Z,28.20
2019-03-01T16:07:09.796Z,25.27
2019-03-01T16:09:45.164Z,22.40
2019-03-01T16:12:19.475Z,23.57
2019-03-01T16:14:51.527Z,26.37
2019-03-01T16:17:24.747Z,24.23
2019-03-01T16:19:59.271Z,25.97
2019-03-01T16:22:31.743Z,25.23
2019-03-01T16:25:11.937Z,27.37
2019-03-01T16:27:45.981Z,26.43
2019-03-01T16:30:19.095Z,19.40
2019-03-01T16:32:52.517Z,21.57
2019-03-01T16:35:24.778Z,21.27
2019-03-01T16:38:01.416Z,21.73
2019-03-01T16:40:32.265Z,18.90
2019-03-01T16:43:05.567Z,15.13
2019-03-01T16:45:40.722Z,17.53
2019-03-01T16:48:13.570Z,22.10
2019-03-01T16:50:47.919Z,15.97
2019-03-01T16:53:20.619Z,20.87
2019-03-01T16:55:53.006Z,20.77
2019-03-01T16:58:28.245Z,15.67
2019-03-01T17:01:01.373Z,20.40
2019-03-01T17:03:36.447Z,16.90
2019-03-01T17:06:10.531Z,16.70
2019-03-01T17:08:43.576Z,17.13
2019-03-01T17:11:18.956Z,14.67
2019-03-01T17:13:51.226Z,12.60
2019-03-01T17:16:24.796Z,12.20
2019-03-01T17:18:56.804Z,9.87
2019-03-01T17:21:29.217Z,13.47
2019-03-01T17:24:03.466Z,15.47
2019-03-01T17:26:36.055Z,10.77
2019-03-01T17:29:09.414Z,12.27
2019-03-01T17:31:41.164Z,11.90
2019-03-01T17:34:13.772Z,12.33
2019-03-01T17:36:49.976Z,12.13
2019-03-01T17:39:21.879Z,11.20
2019-03-01T17:41:56.852Z,11.93
2019-03-01T17:44:31.193Z,12.33
2019-03-01T17:47:06.072Z,12.10
2019-03-01T17:49:39.352Z,13.30
2019-03-01T17:52:14.398Z,14.63
2019-03-01T17:54:47.409Z,13.20
2019-03-01T17:57:25.299Z,12.97
2019-03-01T17:59:57.389Z,11.53
2019-03-01T18:02:28.792Z,13.03
2019-03-01T18:05:02.330Z,9.20
2019-03-01T18:07:36.232Z,13.80
2019-03-01T18:10:10.316Z,11.10
2019-03-01T18:12:44.093Z,10.90
2019-03-01T18:15:16.281Z,12.50
2019-03-01T18:17:47.796Z,11.90
2019-03-01T18:20:19.694Z,12.33
2019-03-01T18:22:51.903Z,12.03
2019-03-01T18:25:27.121Z,9.10
2019-03-01T18:27:57.135Z,14.87
2019-03-01T18:30:30.093Z,14.10
2019-03-01T18:33:02.198Z,20.00
2019-03-01T18:35:36.650Z,11.33
2019-03-01T18:38:08.713Z,15.03
2019-03-01T18:40:38.390Z,13.47
2019-03-01T18:43:13.057Z,11.90
2019-03-01T18:45:44.483Z,15.60
2019-03-01T18:48:17.451Z,8.77
2019-03-01T18:50:50.172Z,16.73
2019-03-01T18:53:25.059Z,11.77
2019-03-01T18:55:57.039Z,9.63
2019-03-01T18:58:29.135Z,11.50
2019-03-01T19:01:02.927Z,11.20
2019-03-01T19:03:36.600Z,11.87
2019-03-01T19:06:08.980Z,9.50
2019-03-01T19:08:41.419Z,15.50
2019-03-01T19:11:15.963Z,15.10
2019-03-01T19:13:49.491Z,12.93
2019-03-01T19:16:25.318Z,13.10
2019-03-01T19:19:00.618Z,13.27
2019-03-01T19:21:33.870Z,14.60
2019-03-01T19:24:08.064Z,11.90
2019-03-01T19:26:40.249Z,16.10
2019-03-01T19:29:14.600Z,12.77
2019-03-01T19:31:47.176Z,11.90
2019-03-01T19:34:19.510Z,13.27
2019-03-01T19:36:52.075Z,14.53
2019-03-01T19:39:26.877Z,13.70
2019-03-01T19:42:00.845Z,13.57
2019-03-01T19:44:32.884Z,15.03
2019-03-01T19:47:05.748Z,16.20
2019-03-01T19:49:38.470Z,18.00
2019-03-01T19:52:13.778Z,13.13
2019-03-01T19:54:46.095Z,15.70
2019-03-01T19:57:18.502Z,8.40
2019-03-01T19:59:53.212Z,9.43
2019-03-01T20:02:31.037Z,10.77
2019-03-01T20:05:07.599Z,13.87
2019-03-01T20:07:41.333Z,12.63
2019-03-01T20:10:14.977Z,11.67
2019-03-01T20:12:50.424Z,11.43
2019-03-01T20:15:24.293Z,16.60
2019-03-01T20:17:56.771Z,14.83
2019-03-01T20:20:33.357Z,17.90
2019-03-01T20:23:08.855Z,15.13
2019-03-01T20:25:41.690Z,13.40
2019-03-01T20:28:17.841Z,14.93
2019-03-01T20:30:52.035Z,10.63
2019-03-01T20:33:27.068Z,13.90
2019-03-01T20:35:58.920Z,13.93
2019-03-01T20:38:31.684Z,11.63
2019-03-01T20:43:37.862Z,11.83
2019-03-01T20:46:12.052Z,13.40
2019-03-01T20:48:47.315Z,12.20
2019-03-01T20:51:26.551Z,10.63
2019-03-01T20:53:54.910Z,11.77
2019-03-01T20:56:28.792Z,10.60
2019-03-01T20:59:02.897Z,12.67
2019-03-01T21:01:38.183Z,9.77
2019-03-01T21:04:13.620Z,9.73
2019-03-01T21:06:47.102Z,8.47
2019-03-01T21:09:19.815Z,9.57
2019-03-01T21:11:53.882Z,10.30
2019-03-01T21:14:27.187Z,9.90
2019-03-01T21:17:00.190Z,7.70
2019-03-01T21:19:33.403Z,10.30
2019-03-01T21:22:08.293Z,10.13
2019-03-01T21:24:43.962Z,12.27
2019-03-01T21:27:16.745Z,9.37
2019-03-01T21:29:51.445Z,10.80
2019-03-01T21:32:24.589Z,10.77
2019-03-01T21:34:57.424Z,8.50
2019-03-01T21:37:29.484Z,10.00
2019-03-01T21:40:03.261Z,11.60
2019-03-01T21:42:36.815Z,11.13
2019-03-01T21:45:10.593Z,8.93
2019-03-01T21:47:44.700Z,7.20
2019-03-01T21:50:19.428Z,7.13
2019-03-01T21:52:52.364Z,8.40
2019-03-01T21:55:28.206Z,8.40
2019-03-01T21:57:58.543Z,10.07
2019-03-01T22:00:32.183Z,8.83
2019-03-01T22:03:06.458Z,7.73
2019-03-01T22:05:38.666Z,7.37
2019-03-01T22:08:13.821Z,9.10
2019-03-01T22:10:47.344Z,8.17
2019-03-01T22:13:21.416Z,7.70
2019-03-01T22:15:53.942Z,12.00
2019-03-01T22:18:27.473Z,7.07
2019-03-01T22:20:59.426Z,9.73
2019-03-01T22:23:35.079Z,8.47
2019-03-01T22:26:09.649Z,8.00
2019-03-01T22:28:41.265Z,8.50
2019-03-01T22:31:14.947Z,9.40
2019-03-01T22:33:46.819Z,8.70
2019-03-01T22:36:19.254Z,9.57
2019-03-01T22:38:51.995Z,10.70
2019-03-01T22:41:24.811Z,8.50
2019-03-01T22:43:58.273Z,7.07
2019-03-01T22:46:31.374Z,9.30
2019-03-01T22:49:03.152Z,7.87
2019-03-01T22:51:35.828Z,10.10
2019-03-01T22:54:08.514Z,13.10
2019-03-01T22:56:40.426Z,9.37
2019-03-01T22:59:12.674Z,9.80
2019-03-01T23:01:48.117Z,10.97
2019-03-01T23:04:21.150Z,10.17
2019-03-01T23:06:53.472Z,11.13
2019-03-01T23:09:25.209Z,10.20
2019-03-01T23:11:58.955Z,9.63
2019-03-01T23:14:32.043Z,11.47
2019-03-01T23:17:05.805Z,14.87
2019-03-01T23:19:39.223Z,13.07
2019-03-01T23:22:11.975Z,11.27
2019-03-01T23:24:43.773Z,12.93
2019-03-01T23:27:16.038Z,11.20
2019-03-01T23:29:50.985Z,13.00
2019-03-01T23:32:24.165Z,11.67
2019-03-01T23:34:56.544Z,15.33
2019-03-01T23:37:28.885Z,15.37
2019-03-01T23:40:03.093Z,19.53
2019-03-01T23:42:35.814Z,14.23
2019-03-01T23:45:07.679Z,15.37
2019-03-01T23:47:39.746Z,16.70
2019-03-01T23:50:12.083Z,14.73
2019-03-01T23:52:44.332Z,16.47
2019-03-01T23:55:19.048Z,16.03
2019-03-01T23:57:52.500Z,18.10
